Time;durP1;ratioP1;P1;durP2;ratioP2;P2;SDS_P1;SDS_P2;PMS_P1;PMS_P2;Temp;Humidity;BMP_temperature;BMP_pressure;BME280_temperature;BME280_humidity;BME280_pressure;Samples;Min_cycle;Max_cycle;Signal;HPM_P1;HPM_P2
2022/07/09 00:02:21;;;;;;;1.73;1.05;;;20.90;48.70;;;18.88;52.82;102068.91;12234207;19;20016;-80
2022/07/09 00:06:23;;;;;;;1.27;1.10;;;20.80;48.60;;;18.73;53.02;102057.53;12239066;19;20014;-80
2022/07/09 00:10:25;;;;;;;2.00;1.00;;;21.00;48.70;;;18.72;52.80;102066.41;12245216;19;20058;-80
2022/07/09 00:14:29;;;;;;;1.30;1.05;;;21.00;48.80;;;18.70;53.05;102064.84;12249471;19;20074;-80
2022/07/09 00:18:31;;;;;;;1.67;0.98;;;20.70;48.70;;;18.63;52.89;102058.25;12245274;19;20022;-79
2022/07/09 00:22:33;;;;;;;1.38;1.10;;;20.60;48.80;;;18.66;53.25;102071.28;12243959;19;20015;-80
2022/07/09 00:26:35;;;;;;;1.85;0.85;;;20.60;48.80;;;18.61;53.04;102070.75;12240951;19;20035;-80
2022/07/09 00:30:36;;;;;;;1.30;0.90;;;20.60;48.90;;;18.54;53.09;102060.56;12243691;19;20022;-80
2022/07/09 00:34:38;;;;;;;1.08;1.00;;;20.50;48.80;;;18.58;53.10;102077.09;12245912;19;20028;-80
2022/07/09 00:38:39;;;;;;;1.90;0.93;;;20.90;49.00;;;18.52;53.12;102072.19;12250581;19;20081;-80
2022/07/09 00:42:41;;;;;;;2.63;1.10;;;20.40;48.90;;;18.33;53.18;102057.59;12244383;19;20467;-80
2022/07/09 00:46:43;;;;;;;2.80;1.05;;;20.50;48.90;;;18.30;53.04;102057.78;12244185;19;20020;-80
2022/07/09 00:50:45;;;;;;;1.73;1.00;;;20.30;48.90;;;18.16;53.10;102047.28;12244325;19;20014;-80
2022/07/09 00:54:47;;;;;;;4.57;1.23;;;20.30;48.90;;;18.14;53.44;102059.72;12248631;19;20477;-80
2022/07/09 00:58:51;;;;;;;5.82;1.15;;;20.20;48.90;;;18.14;53.16;102084.38;12242114;19;20010;-80
2022/07/09 01:02:53;;;;;;;2.33;1.10;;;20.10;48.90;;;18.03;53.40;102072.81;12239972;19;20025;-80
2022/07/09 01:06:57;;;;;;;2.67;1.17;;;20.00;48.90;;;17.95;53.53;102073.31;12245032;19;20011;-80
2022/07/09 01:11:00;;;;;;;1.83;0.85;;;20.00;49.10;;;17.65;53.39;102032.03;12244674;19;20025;-80
2022/07/09 01:15:02;;;;;;;1.17;1.05;;;19.90;49.10;;;17.53;53.35;102019.63;12232697;19;20022;-80
2022/07/09 01:19:05;;;;;;;2.42;1.13;;;19.80;49.10;;;17.47;53.49;102006.78;12243626;19;20345;-80
2022/07/09 01:23:07;;;;;;;1.92;1.10;;;20.20;49.30;;;17.71;53.41;102051.91;12245922;19;20022;-80
2022/07/09 01:27:09;;;;;;;2.35;0.85;;;19.70;49.10;;;17.38;53.77;102002.94;12244114;19;20035;-80
2022/07/09 01:31:10;;;;;;;1.92;1.05;;;19.70;49.20;;;17.29;53.50;101989.50;12242634;19;20018;-80
2022/07/09 01:35:11;;;;;;;1.65;1.00;;;19.70;49.20;;;17.27;53.60;101991.38;12243535;19;20015;-79
2022/07/09 01:39:13;;;;;;;6.15;1.35;;;19.70;49.30;;;17.21;53.93;101993.44;12246927;19;20014;-80
2022/07/09 01:43:15;;;;;;;2.03;1.13;;;19.60;49.30;;;17.48;53.79;102032.25;12243024;19;20019;-80
2022/07/09 01:47:17;;;;;;;2.63;1.23;;;19.40;49.30;;;17.44;53.74;102033.38;12244267;19;20010;-80
2022/07/09 01:51:18;;;;;;;5.03;1.10;;;19.50;49.40;;;17.10;54.09;101974.81;12238119;19;20018;-80
2022/07/09 01:55:20;;;;;;;1.77;1.10;;;19.50;49.50;;;17.39;53.89;102030.19;12242364;19;20039;-80
2022/07/09 01:59:21;;;;;;;2.35;1.33;;;19.40;49.80;;;17.34;54.04;102029.66;12242404;19;20026;-80
2022/07/09 02:03:23;;;;;;;1.50;1.30;;;19.30;49.50;;;17.14;54.31;101997.41;12242322;19;20014;-80
2022/07/09 02:07:25;;;;;;;2.35;1.00;;;19.30;49.60;;;17.31;53.98;102033.34;12242901;19;20026;-81
2022/07/09 02:11:27;;;;;;;2.88;1.30;;;19.30;49.60;;;17.18;54.14;102006.00;12237841;19;20369;-80
2022/07/09 02:15:29;;;;;;;1.50;1.10;;;19.50;49.80;;;17.22;54.25;102015.41;12238879;19;20042;-80
2022/07/09 02:19:30;;;;;;;2.75;1.27;;;19.20;49.80;;;17.17;54.18;102006.94;12235608;19;20019;-80
2022/07/09 02:23:32;;;;;;;3.67;1.10;;;19.20;49.90;;;17.17;54.35;102013.06;12240903;19;20010;-80
2022/07/09 02:27:34;;;;;;;5.05;1.50;;;19.20;49.90;;;17.03;54.31;101994.59;12242823;19;20014;-80
2022/07/09 02:31:36;;;;;;;4.05;1.35;;;19.10;49.90;;;17.14;54.47;102020.31;12234563;19;20021;-80
2022/07/09 02:35:37;;;;;;;1.60;1.25;;;19.10;49.90;;;16.77;54.24;101956.66;12242845;19;20364;-80
2022/07/09 02:39:39;;;;;;;3.80;1.40;;;19.10;50.00;;;16.83;54.49;101969.44;12241382;19;20037;-80
2022/07/09 02:43:43;;;;;;;2.72;1.60;;;19.00;50.00;;;16.94;54.34;101987.25;12241720;19;20019;-80
2022/07/09 02:47:45;;;;;;;3.58;1.20;;;19.30;50.20;;;16.90;54.34;101991.03;12240002;19;20021;-80
2022/07/09 02:51:47;;;;;;;1.98;1.48;;;19.10;50.10;;;16.72;54.60;101970.06;12235147;19;20018;-80
2022/07/09 02:55:49;;;;;;;4.40;1.55;;;19.00;50.10;;;16.62;54.65;101957.53;12238232;19;20058;-79
2022/07/09 02:59:50;;;;;;;4.82;1.40;;;19.00;50.10;;;16.76;54.61;101989.19;12241058;19;20014;-80
2022/07/09 03:03:52;;;;;;;3.17;1.70;;;19.20;50.30;;;16.93;54.91;102027.75;12236652;19;20534;-80
2022/07/09 03:07:54;;;;;;;1.83;1.20;;;18.90;50.30;;;16.87;54.83;102021.06;12240489;19;20031;-80
2022/07/09 03:11:56;;;;;;;1.95;1.60;;;18.80;50.30;;;16.78;54.87;102003.19;12233745;19;20018;-80
2022/07/09 03:15:57;;;;;;;3.30;1.65;;;19.10;50.50;;;16.83;54.62;102011.66;12237385;19;20014;-82
2022/07/09 03:19:59;;;;;;;2.33;1.42;;;19.00;50.50;;;16.90;54.57;102015.59;12235602;19;20006;-76
2022/07/09 03:24:01;;;;;;;3.45;1.27;;;18.90;50.40;;;16.92;54.80;102012.88;12240744;19;20010;-76
2022/07/09 03:28:03;;;;;;;3.80;1.80;;;19.30;50.60;;;16.88;54.85;102014.88;12237416;19;20041;-76
2022/07/09 03:32:06;;;;;;;3.05;1.80;;;18.90;50.30;;;16.80;54.75;102003.94;12241083;19;20038;-76
2022/07/09 03:36:09;;;;;;;2.92;1.58;;;18.90;50.20;;;16.79;54.66;102013.63;12239232;19;20504;-77
2022/07/09 03:40:11;;;;;;;2.17;1.40;;;19.10;50.20;;;16.89;54.77;102036.81;12238847;19;20041;-76
2022/07/09 03:44:13;;;;;;;4.13;1.63;;;18.90;50.30;;;16.86;54.91;102032.59;12238302;19;20014;-76
2022/07/09 03:48:14;;;;;;;3.33;1.52;;;18.90;50.10;;;16.76;55.05;102029.59;12239212;19;20022;-76
2022/07/09 03:52:17;;;;;;;2.70;1.35;;;18.80;49.90;;;16.69;54.74;102033.56;12234368;19;20488;-76
2022/07/09 03:56:19;;;;;;;2.33;1.40;;;18.80;49.90;;;16.69;54.90;102027.44;12241341;19;20018;-77
2022/07/09 04:00:21;;;;;;;2.45;1.50;;;18.80;50.00;;;16.76;55.03;102039.31;12235571;19;20656;-77
2022/07/09 04:04:23;;;;;;;2.45;1.55;;;18.70;50.10;;;16.65;54.85;102018.03;12239032;19;20031;-77
2022/07/09 04:08:25;;;;;;;2.22;1.27;;;18.70;50.10;;;16.62;54.67;102013.78;12235923;19;20376;-76
2022/07/09 04:12:26;;;;;;;2.22;1.40;;;18.70;50.10;;;16.64;54.87;102014.53;12233599;19;20026;-76
2022/07/09 04:16:29;;;;;;;5.03;1.52;;;18.70;50.00;;;16.78;54.71;102035.69;12235632;19;20504;-76
2022/07/09 04:20:30;;;;;;;3.90;1.55;;;18.70;50.00;;;16.69;54.72;102024.78;12233302;19;20067;-76
2022/07/09 04:24:32;;;;;;;2.38;1.63;;;18.80;49.90;;;16.73;54.79;102027.16;12238977;19;20488;-76
2022/07/09 04:28:36;;;;;;;2.28;1.42;;;18.70;49.90;;;16.76;55.02;102026.97;12230652;19;20014;-77
2022/07/09 04:32:38;;;;;;;2.78;1.20;;;18.80;50.00;;;16.74;54.75;102006.91;12235787;19;20502;-76
2022/07/09 04:36:40;;;;;;;3.53;1.20;;;18.80;49.90;;;16.85;54.77;102032.66;12237427;19;20023;-77
2022/07/09 04:40:42;;;;;;;3.42;1.30;;;18.80;49.90;;;16.78;54.68;102022.50;12237183;19;20536;-76
2022/07/09 04:44:43;;;;;;;4.20;1.60;;;18.80;49.70;;;16.78;54.60;102017.22;12236259;19;20010;-77
2022/07/09 04:48:45;;;;;;;2.22;1.05;;;18.80;49.80;;;16.83;54.61;102016.09;12234414;19;20486;-77
2022/07/09 04:52:47;;;;;;;1.67;1.15;;;19.10;50.00;;;16.93;54.63;102019.84;12233683;19;20017;-76
2022/07/09 04:56:49;;;;;;;3.45;1.65;;;18.90;49.80;;;16.94;54.70;102016.28;12243649;19;20135;-77
2022/07/09 05:00:50;;;;;;;2.50;1.13;;;18.90;49.90;;;16.88;54.53;102004.31;12242884;19;20095;-77
2022/07/09 05:04:52;;;;;;;2.03;1.35;;;18.90;49.80;;;17.06;54.68;102036.63;12246842;19;20026;-76
2022/07/09 05:08:54;;;;;;;1.58;1.05;;;19.00;49.90;;;17.06;54.66;102018.16;12241773;19;20498;-79
2022/07/09 05:12:56;;;;;;;2.40;1.33;;;19.00;49.80;;;17.15;54.65;102024.69;12245868;19;20022;-76
2022/07/09 05:16:57;;;;;;;4.00;1.20;;;19.10;49.90;;;17.13;54.66;102014.19;12246199;19;20018;-76
2022/07/09 05:20:59;;;;;;;3.25;1.73;;;19.10;49.90;;;17.25;54.59;102028.41;12245112;19;20031;-77
2022/07/09 05:25:03;;;;;;;3.22;1.30;;;19.30;50.00;;;17.33;54.71;102035.88;12247747;19;20010;-76
2022/07/09 05:29:05;;;;;;;3.85;1.17;;;19.20;49.90;;;17.36;54.73;102022.47;12239634;19;20388;-77
2022/07/09 05:33:07;;;;;;;2.83;1.27;;;19.30;50.00;;;17.28;54.47;102000.97;12248017;19;20011;-76
2022/07/09 05:37:08;;;;;;;2.85;1.02;;;19.30;50.00;;;17.40;54.58;102021.34;12244544;19;20018;-79
2022/07/09 05:41:10;;;;;;;3.53;1.40;;;19.40;49.90;;;17.47;54.59;102012.94;12245594;19;20033;-76
2022/07/09 05:45:12;;;;;;;2.30;1.30;;;19.70;50.10;;;17.53;54.85;102027.53;12245972;19;20018;-79
2022/07/09 05:49:14;;;;;;;3.25;1.20;;;19.40;50.00;;;17.45;54.85;101992.84;12243332;19;20502;-77
2022/07/09 05:53:16;;;;;;;2.70;1.27;;;19.50;50.10;;;17.66;54.78;102001.16;12242776;19;20031;-76
2022/07/09 05:57:18;;;;;;;3.20;1.10;;;19.80;50.20;;;17.56;54.56;101981.59;12245264;19;20472;-77
2022/07/09 06:01:20;;;;;;;1.90;1.10;;;19.60;50.10;;;17.70;54.55;101995.59;12244716;19;20010;-76
2022/07/09 06:05:21;;;;;;;2.03;1.40;;;19.70;50.20;;;17.71;54.56;101983.22;12243721;19;20038;-76
2022/07/09 06:09:23;;;;;;;1.00;1.00;;;20.10;50.40;;;17.80;54.61;101995.88;12235238;19;20022;-79
2022/07/09 06:13:25;;;;;;;2.70;1.35;;;19.70;50.00;;;17.86;54.87;101987.53;12241195;19;20025;-76
2022/07/09 06:17:27;;;;;;;1.20;1.10;;;19.80;50.20;;;17.85;54.76;101977.09;12246387;19;20010;-77
2022/07/09 06:21:28;;;;;;;3.80;1.17;;;19.80;50.20;;;17.88;54.82;101980.38;12240389;19;20031;-77
2022/07/09 06:25:30;;;;;;;2.45;1.23;;;19.90;50.20;;;17.98;54.76;101991.16;12246060;19;20018;-76
2022/07/09 06:29:31;;;;;;;2.00;1.17;;;20.10;50.40;;;17.91;54.82;101963.47;12242569;19;20018;-76
2022/07/09 06:33:33;;;;;;;5.20;1.85;;;19.90;50.30;;;17.96;54.65;101973.72;12244880;19;20011;-77
2022/07/09 06:37:35;;;;;;;3.80;1.25;;;20.10;50.40;;;18.14;54.96;101994.47;12241104;19;20044;-77
2022/07/09 06:41:36;;;;;;;1.67;1.15;;;20.00;50.30;;;18.14;54.85;101983.91;12240651;19;20019;-76
2022/07/09 06:45:39;;;;;;;2.70;1.15;;;20.00;50.40;;;18.06;54.84;101957.13;12242534;19;20471;-77
2022/07/09 06:49:41;;;;;;;1.33;1.23;;;20.10;50.60;;;18.16;54.78;101967.94;12242266;19;20011;-77
2022/07/09 06:53:42;;;;;;;5.55;1.60;;;20.10;50.40;;;18.26;54.65;101976.13;12240852;19;20089;-77
2022/07/09 06:57:44;;;;;;;2.35;1.45;;;20.20;50.70;;;18.31;54.75;101979.31;12243202;19;20044;-77
2022/07/09 07:01:46;;;;;;;3.05;1.25;;;20.40;50.70;;;18.45;54.80;102000.38;12238504;19;20023;-77
2022/07/09 07:05:48;;;;;;;2.40;1.08;;;20.30;50.60;;;18.17;54.68;101953.78;12243852;19;20015;-76
2022/07/09 07:09:49;;;;;;;3.88;1.35;;;20.30;50.40;;;18.32;54.79;101970.41;12238669;19;20049;-77
2022/07/09 07:13:51;;;;;;;2.97;1.50;;;20.30;50.30;;;18.44;54.95;101982.78;12239881;19;20025;-77
2022/07/09 07:17:53;;;;;;;2.08;1.23;;;20.40;50.40;;;18.55;54.84;101982.03;12242568;19;20556;-76
2022/07/09 07:21:55;;;;;;;2.58;1.30;;;20.40;50.40;;;18.61;54.80;101986.94;12235288;19;20022;-79
2022/07/09 07:26:00;;;;;;;1.63;1.30;;;20.80;50.60;;;18.72;54.96;101999.44;12237699;19;20098;-79
2022/07/09 07:30:02;;;;;;;3.20;1.30;;;20.50;50.40;;;18.61;54.96;101960.47;12238055;19;20010;-79
2022/07/09 07:34:04;;;;;;;2.35;1.40;;;20.60;50.30;;;18.69;54.75;101959.94;12237317;19;20933;-78
2022/07/09 07:38:06;;;;;;;1.58;1.27;;;20.60;50.30;;;18.75;54.88;101951.59;12239173;19;20035;-78
2022/07/09 07:42:07;;;;;;;2.42;1.35;;;20.80;50.60;;;18.86;54.55;101959.63;12240469;19;20031;-78
2022/07/09 07:46:09;;;;;;;4.25;1.38;;;20.80;50.40;;;19.07;54.80;101985.56;12239219;19;20085;-78
2022/07/09 07:50:11;;;;;;;2.08;1.40;;;20.80;50.40;;;19.08;54.66;101974.00;12238268;19;20014;-78
2022/07/09 07:54:12;;;;;;;3.35;1.50;;;20.90;50.30;;;19.13;54.62;101966.56;12239074;19;20007;-78
2022/07/09 07:58:14;;;;;;;1.30;1.10;;;21.00;50.30;;;19.20;54.75;101951.94;12240927;19;20051;-78
2022/07/09 08:02:15;;;;;;;1.70;0.80;;;21.30;50.40;;;19.31;54.72;101944.06;12236655;19;20015;-79
2022/07/09 08:06:17;;;;;;;1.05;1.02;;;21.40;50.40;;;19.47;54.53;101941.13;12240993;19;20025;-78
2022/07/09 08:10:19;;;;;;;1.50;1.27;;;21.20;50.30;;;19.61;54.43;101956.84;12237030;19;20010;-78
2022/07/09 08:14:20;;;;;;;3.00;1.35;;;21.30;50.10;;;19.67;54.41;101947.63;12241538;19;20014;-78
2022/07/09 08:18:22;;;;;;;3.10;1.38;;;21.40;50.10;;;19.77;54.44;101951.31;12237309;19;20632;-78
2022/07/09 08:22:24;;;;;;;2.88;1.27;;;21.80;50.40;;;19.93;54.44;101950.13;12236724;19;20019;-78
2022/07/09 08:26:28;;;;;;;3.30;1.13;;;21.60;49.90;;;19.96;54.22;101945.47;12236586;19;20031;-78
2022/07/09 08:30:30;;;;;;;3.13;1.13;;;21.70;49.90;;;20.08;54.22;101956.94;12243494;19;20390;-78
2022/07/09 08:34:31;;;;;;;1.65;1.33;;;21.80;49.90;;;19.94;53.95;101920.03;12251103;19;20020;-78
2022/07/09 08:38:33;;;;;;;1.75;0.90;;;22.00;49.80;;;20.07;54.27;101934.03;12251621;19;20472;-78
2022/07/09 08:42:36;;;;;;;1.65;1.13;;;21.90;49.60;;;20.12;53.94;101934.53;12245280;19;20483;-78
2022/07/09 08:46:41;;;;;;;1.75;1.00;;;21.90;49.60;;;19.83;54.16;101889.88;12244343;19;20018;-78
2022/07/09 08:50:43;;;;;;;1.98;1.02;;;21.90;49.50;;;20.13;54.18;101933.56;12241373;19;20019;-78
2022/07/09 08:54:45;;;;;;;1.05;1.02;;;22.00;50.10;;;20.05;54.15;101898.84;12245021;19;20020;-78
2022/07/09 08:58:47;;;;;;;6.25;1.00;;;22.00;49.60;;;20.16;54.03;101898.00;12247525;19;20031;-78
2022/07/09 09:02:49;;;;;;;1.50;1.05;;;22.00;49.70;;;20.29;54.30;101909.38;12241671;19;20018;-79
2022/07/09 09:06:53;;;;;;;2.00;1.13;;;22.20;49.70;;;20.50;53.78;101923.63;12245933;19;20014;-78
2022/07/09 09:10:55;;;;;;;1.75;1.08;;;22.20;49.70;;;20.60;54.14;101913.13;12244743;19;20014;-79
2022/07/09 09:14:57;;;;;;;3.85;1.60;;;22.30;49.70;;;20.64;54.01;101903.97;12250388;19;20019;-78
2022/07/09 09:19:00;;;;;;;0.80;0.80;;;22.80;49.70;;;20.59;53.59;101892.88;12246688;19;20007;-78
2022/07/09 09:23:04;;;;;;;2.33;1.15;;;22.50;49.60;;;20.63;53.66;101897.00;12244232;19;20489;-78
2022/07/09 09:27:06;;;;;;;1.58;1.17;;;22.50;49.30;;;20.74;53.58;101918.22;12244646;19;20015;-78
2022/07/09 09:31:36;;;;;;;1.30;1.20;;;22.60;49.40;;;20.76;53.60;101926.88;12246040;19;20018;-79
2022/07/09 09:35:44;;;;;;;3.33;1.25;;;22.60;49.00;;;20.70;53.72;101924.72;12245236;19;20022;-78
2022/07/09 09:39:51;;;;;;;1.52;1.00;;;22.60;49.10;;;20.66;53.69;101920.63;12244888;19;20042;-78
2022/07/09 09:43:56;;;;;;;2.22;1.15;;;22.60;49.10;;;20.39;54.08;101880.28;12243943;19;20022;-78
2022/07/09 09:48:00;;;;;;;1.17;1.10;;;22.60;49.00;;;20.66;53.78;101931.25;12243787;19;20010;-78
2022/07/09 09:52:10;;;;;;;4.22;1.20;;;22.50;49.20;;;20.64;53.65;101924.38;12239416;19;20043;-78
2022/07/09 09:56:12;;;;;;;1.52;1.42;;;22.50;49.00;;;20.59;53.69;101927.38;12245912;19;20516;-79
2022/07/09 10:00:15;;;;;;;2.65;1.35;;;22.50;49.10;;;20.53;53.70;101938.47;12243312;19;20134;-78
2022/07/09 10:04:18;;;;;;;1.30;1.00;;;22.40;49.40;;;20.33;54.17;101924.94;12247753;19;20110;-77
2022/07/09 10:08:20;;;;;;;1.15;1.00;;;22.40;50.00;;;20.28;54.46;101928.88;12238701;19;20099;-78
2022/07/09 10:12:30;;;;;;;0.90;0.80;;;22.30;50.40;;;20.14;54.69;101921.97;12240168;19;20007;-77
2022/07/09 10:16:40;;;;;;;1.38;1.10;;;22.30;51.00;;;19.87;55.07;101886.03;12242382;19;20486;-77
2022/07/09 10:20:43;;;;;;;1.83;1.50;;;22.20;51.50;;;20.12;54.98;101923.94;12241429;19;20027;-78
2022/07/09 10:24:48;;;;;;;1.23;0.98;;;22.10;52.10;;;20.19;55.16;101935.75;12240616;19;20025;-80
2022/07/09 10:28:50;;;;;;;1.52;1.42;;;22.00;52.20;;;19.88;55.45;101884.22;12242087;19;20049;-78
2022/07/09 10:33:05;;;;;;;4.20;1.27;;;22.00;51.90;;;20.03;55.77;101901.59;12240463;19;20029;-78
2022/07/09 10:37:06;;;;;;;0.90;0.90;;;22.00;52.60;;;20.11;55.49;101927.53;12245241;19;20024;-78
2022/07/09 10:41:08;;;;;;;1.35;1.17;;;22.20;52.40;;;20.15;55.57;101914.91;12241675;19;20026;-78
2022/07/09 10:45:24;;;;;;;1.83;1.05;;;22.20;52.60;;;20.14;55.79;101903.41;12241504;19;20111;-78
2022/07/09 10:49:27;;;;;;;1.58;1.33;;;22.00;52.70;;;20.21;55.49;101902.00;12236814;19;20033;-78
2022/07/09 10:53:29;;;;;;;1.63;1.00;;;22.00;52.60;;;20.37;55.97;101906.97;12240749;19;20022;-79
2022/07/09 10:57:31;;;;;;;3.22;1.85;;;22.10;52.80;;;20.51;55.63;101901.41;12243163;19;20036;-78
2022/07/09 11:01:33;;;;;;;6.10;4.13;;;22.20;52.70;;;20.65;55.64;101900.34;12239403;19;20019;-78
2022/07/09 11:05:44;;;;;;;4.22;2.70;;;22.30;52.50;;;20.60;55.80;101872.47;12240965;19;20011;-78
2022/07/09 11:09:46;;;;;;;2.92;2.05;;;22.30;52.40;;;20.83;55.60;101890.09;12235720;19;20400;-78
2022/07/09 11:13:54;;;;;;;2.88;1.90;;;22.60;52.10;;;20.87;55.73;101866.78;12243693;19;20014;-78
2022/07/09 11:18:06;;;;;;;1.52;1.40;;;22.50;52.20;;;21.12;55.40;101876.28;12240121;19;20757;-78
2022/07/09 11:22:07;;;;;;;2.17;1.50;;;22.70;52.30;;;21.24;55.23;101855.81;12240815;19;20010;-78
2022/07/09 11:26:09;;;;;;;3.67;1.50;;;22.80;52.00;;;21.42;55.25;101857.00;12240083;19;20456;-78
2022/07/09 11:30:15;;;;;;;3.03;1.70;;;23.00;52.10;;;21.61;55.21;101856.28;12240500;19;20026;-78
2022/07/09 11:34:18;;;;;;;3.70;1.63;;;23.10;51.30;;;21.80;55.02;101851.09;12239092;19;20039;-78
2022/07/09 11:38:20;;;;;;;3.78;1.55;;;23.30;51.70;;;22.04;54.50;101839.34;12242267;19;20010;-78
2022/07/09 11:42:22;;;;;;;2.15;1.35;;;23.50;50.90;;;22.14;54.13;101839.38;12239968;19;20032;-78
2022/07/09 11:46:23;;;;;;;1.33;1.20;;;23.60;50.50;;;22.22;54.00;101823.63;12236983;19;20089;-78
2022/07/09 11:50:27;;;;;;;2.95;2.00;;;23.80;50.30;;;22.03;53.88;101776.44;12238310;19;20018;-78
2022/07/09 11:54:29;;;;;;;3.92;1.95;;;23.90;50.00;;;22.05;53.71;101755.88;12237184;19;20020;-77
2022/07/09 11:58:31;;;;;;;2.63;2.15;;;24.30;49.70;;;22.44;53.84;101807.47;12240177;19;20361;-78
2022/07/09 12:02:38;;;;;;;2.85;1.45;;;24.10;49.40;;;22.52;53.50;101794.31;12234607;19;20476;-78
2022/07/09 12:06:51;;;;;;;2.15;1.50;;;24.30;49.00;;;22.70;53.06;101796.31;12250566;19;20511;-78
2022/07/09 12:10:53;;;;;;;2.55;1.60;;;24.30;48.40;;;22.73;53.02;101785.38;12233918;19;20018;-79
2022/07/09 12:14:55;;;;;;;3.45;1.33;;;24.50;48.50;;;22.83;52.91;101801.38;12253569;19;20010;-79
2022/07/09 12:18:58;;;;;;;1.38;1.20;;;24.60;48.80;;;22.71;52.65;101774.00;12237545;19;20061;-79
2022/07/09 12:22:59;;;;;;;0.95;0.93;;;24.50;48.00;;;22.53;52.58;101731.25;12239043;19;20010;-79
2022/07/09 12:27:01;;;;;;;1.40;0.90;;;24.50;47.90;;;22.84;52.76;101771.09;12245672;19;20026;-79
2022/07/09 12:31:08;;;;;;;1.20;1.10;;;24.60;48.00;;;22.83;52.13;101754.25;12236024;19;20062;-81
2022/07/09 12:35:16;;;;;;;1.13;1.00;;;24.60;47.60;;;22.82;52.34;101755.25;12249684;19;20480;-80
2022/07/09 12:39:21;;;;;;;1.58;0.88;;;24.70;47.30;;;22.82;52.14;101763.25;12244792;19;20033;-80
2022/07/09 12:43:22;;;;;;;1.55;1.00;;;24.80;47.50;;;22.77;52.41;101769.97;12246140;19;20021;-80
2022/07/09 12:47:24;;;;;;;1.33;1.08;;;24.70;47.40;;;22.60;52.20;101758.16;12241343;19;20010;-79
2022/07/09 12:51:28;;;;;;;1.83;1.00;;;24.60;47.10;;;22.60;51.95;101752.84;12236845;19;20692;-80
2022/07/09 12:55:30;;;;;;;0.88;0.82;;;24.50;47.10;;;22.46;52.18;101727.44;12249192;19;20014;-80
2022/07/09 12:59:36;;;;;;;0.73;0.73;;;24.50;47.20;;;22.64;52.32;101755.09;12236945;19;20078;-80
2022/07/09 13:03:38;;;;;;;1.65;0.90;;;24.40;47.20;;;22.63;52.27;101732.13;12246239;19;20045;-80
2022/07/09 13:07:40;;;;;;;1.05;0.82;;;24.40;47.50;;;22.85;52.20;101738.16;12240784;19;20491;-79
2022/07/09 13:11:42;;;;;;;1.63;0.95;;;24.50;47.50;;;22.95;52.11;101747.84;12236775;19;20029;-79
2022/07/09 13:15:45;;;;;;;1.48;1.00;;;24.80;48.10;;;22.86;52.34;101756.66;12241836;19;20079;-79
2022/07/09 13:19:48;;;;;;;1.10;1.00;;;24.70;48.50;;;22.33;52.43;101717.06;12236379;19;20081;-81
2022/07/09 13:23:51;;;;;;;2.22;0.90;;;24.60;49.10;;;22.13;52.89;101736.59;12231603;19;20022;-78
2022/07/09 13:27:52;;;;;;;1.00;0.90;;;24.70;49.40;;;21.97;53.35;101753.91;12235226;19;20360;-79
2022/07/09 13:31:54;;;;;;;2.38;0.85;;;24.30;49.60;;;21.62;53.63;101722.38;12236481;19;20513;-79
2022/07/09 13:35:55;;;;;;;1.48;1.10;;;24.00;49.90;;;21.56;53.80;101720.25;12240483;19;20460;-79
2022/07/09 13:39:57;;;;;;;0.88;0.80;;;23.80;50.20;;;21.43;54.33;101715.16;12234215;19;20404;-79
2022/07/09 13:43:59;;;;;;;1.25;0.98;;;23.60;50.50;;;21.41;54.41;101715.31;12245836;19;20022;-79
2022/07/09 13:48:01;;;;;;;1.02;0.93;;;23.50;51.00;;;21.26;54.77;101692.66;12242614;19;20025;-79
2022/07/09 13:52:03;;;;;;;1.42;0.90;;;23.30;51.30;;;21.35;54.59;101702.47;12235799;19;20006;-79
2022/07/09 13:56:05;;;;;;;1.23;1.13;;;23.30;51.80;;;21.46;54.58;101714.88;12239119;19;20018;-79
2022/07/09 14:00:08;;;;;;;1.90;1.27;;;23.30;52.10;;;21.35;55.06;101697.16;12234407;19;20018;-79
2022/07/09 14:04:10;;;;;;;0.93;0.93;;;23.20;52.30;;;21.33;55.28;101688.50;12244649;19;20022;-79
2022/07/09 14:08:12;;;;;;;0.98;0.95;;;23.20;52.40;;;21.32;55.28;101683.31;12241019;19;20021;-79
2022/07/09 14:12:14;;;;;;;0.80;0.80;;;23.20;52.60;;;21.26;55.29;101670.56;12235042;19;20078;-79
2022/07/09 14:16:16;;;;;;;1.17;0.77;;;23.30;53.00;;;21.41;55.48;101685.19;12238802;19;20010;-79
2022/07/09 14:20:19;;;;;;;1.40;0.90;;;23.30;53.30;;;21.31;55.57;101660.38;12233054;19;20015;-79
2022/07/09 14:24:20;;;;;;;1.35;0.90;;;23.20;53.20;;;21.34;55.94;101652.97;12245958;19;20507;-80
2022/07/09 14:28:22;;;;;;;2.45;1.20;;;23.20;53.50;;;21.48;56.15;101651.81;12235064;19;20098;-79
2022/07/09 14:32:24;;;;;;;1.20;0.90;;;23.30;53.70;;;21.54;55.90;101653.94;12237630;19;20030;-79
2022/07/09 14:36:25;;;;;;;1.58;1.20;;;23.30;53.40;;;21.70;56.11;101664.06;12238237;19;20356;-79
2022/07/09 14:40:28;;;;;;;2.88;1.40;;;23.30;53.80;;;21.65;55.96;101634.38;12234791;19;20035;-80
2022/07/09 14:44:30;;;;;;;1.08;0.98;;;23.40;54.00;;;21.68;55.99;101625.31;12244529;19;20049;-80
2022/07/09 14:48:32;;;;;;;1.15;1.10;;;23.50;53.50;;;21.76;55.68;101630.78;12237911;19;20014;-81
2022/07/09 14:52:34;;;;;;;1.20;1.08;;;23.50;53.40;;;21.74;56.18;101632.72;12234128;19;20022;-80
2022/07/09 14:56:35;;;;;;;0.95;0.95;;;23.60;53.60;;;21.77;56.23;101635.16;12236866;19;20018;-80
2022/07/09 15:00:38;;;;;;;0.88;0.88;;;23.60;53.60;;;21.96;55.96;101650.31;12235298;19;20026;-80
2022/07/09 15:04:40;;;;;;;1.10;1.05;;;23.70;53.40;;;21.83;56.11;101613.31;12239063;19;20063;-80
2022/07/09 15:08:41;;;;;;;1.33;0.70;;;23.70;53.20;;;22.07;55.89;101645.72;12236950;19;20018;-80
2022/07/09 15:12:43;;;;;;;0.93;0.90;;;23.70;52.80;;;22.03;55.77;101628.31;12233027;19;20030;-80
2022/07/09 15:16:45;;;;;;;1.30;0.90;;;23.80;52.70;;;22.00;55.98;101631.25;12236175;19;20150;-80
2022/07/09 15:20:47;;;;;;;0.95;0.95;;;23.70;52.40;;;21.99;55.88;101624.28;12232273;19;20027;-80
2022/07/09 15:24:49;;;;;;;1.13;1.00;;;23.80;52.80;;;21.84;55.98;101583.91;12217465;19;20010;-80
2022/07/09 15:28:51;;;;;;;1.05;0.82;;;23.80;53.10;;;22.25;55.70;101615.78;12229455;19;20479;-80
2022/07/09 15:32:53;;;;;;;0.77;0.77;;;23.90;52.70;;;22.30;55.76;101597.56;12227195;19;20620;-80
2022/07/09 15:36:54;;;;;;;0.88;0.82;;;24.00;52.60;;;22.41;55.42;101599.25;12229385;19;20025;-80
2022/07/09 15:40:55;;;;;;;0.80;0.80;;;24.00;52.00;;;22.35;55.08;101574.06;12234349;19;20034;-80
2022/07/09 15:44:58;;;;;;;1.23;0.70;;;24.10;51.50;;;22.58;54.93;101608.38;12232179;19;20014;-81
2022/07/09 15:49:00;;;;;;;1.38;0.75;;;24.20;51.10;;;22.19;54.85;101547.16;12235893;19;20014;-80
2022/07/09 15:53:03;;;;;;;2.90;1.67;;;24.30;51.00;;;22.35;54.91;101574.06;12237290;19;20015;-80
2022/07/09 15:57:04;;;;;;;1.17;1.02;;;24.30;50.80;;;22.12;54.78;101511.44;12236425;19;20018;-80
2022/07/09 16:01:06;;;;;;;2.67;1.00;;;24.30;50.80;;;22.70;54.75;101577.94;12233673;19;20038;-80
2022/07/09 16:05:08;;;;;;;1.05;0.90;;;24.40;50.50;;;22.72;54.57;101570.66;12236486;19;20441;-80
2022/07/09 16:09:10;;;;;;;0.85;0.70;;;24.40;50.40;;;22.83;54.35;101562.50;12232610;19;20031;-80
2022/07/09 16:13:12;;;;;;;0.60;0.60;;;24.50;50.00;;;22.63;53.99;101508.47;12230489;19;20457;-80
2022/07/09 16:17:14;;;;;;;0.70;0.70;;;24.60;49.70;;;23.00;53.97;101560.94;12233314;19;20017;-80
2022/07/09 16:21:16;;;;;;;0.73;0.63;;;24.60;50.00;;;23.06;53.61;101562.16;12231026;19;20025;-80
2022/07/09 16:25:18;;;;;;;1.17;0.90;;;24.70;49.10;;;23.02;53.13;101560.78;12238785;19;20024;-80
2022/07/09 16:29:20;;;;;;;0.85;0.82;;;24.70;48.60;;;22.68;53.21;101516.84;12230309;19;20027;-80
2022/07/09 16:33:22;;;;;;;0.88;0.88;;;24.80;48.50;;;22.67;53.18;101525.81;12237406;19;20126;-80
2022/07/09 16:37:24;;;;;;;0.75;0.63;;;24.70;48.50;;;22.84;52.82;101553.50;12234969;19;20471;-80